ZSPD/PVG METAR and TAF weather

Enter ICAO airport designator
Station Type Date Time Source
ZSPD METAR 2021/04/18 03:00 UTC NOAA

ZSPD 180300Z 11004MPS 060V180 CAVOK 18/M02 Q1023 NOSIG


Station Type Date Time Source
ZSPD Decoded METAR 2021/04/18 03:00 UTC NOAA

Shanghai / Pudong, China (ZSPD) 31-07N 121-46E
Apr 17, 2021 - 11:00 PM EDT / 2021.04.18 0300 UTC
Wind: from the ESE (110 degrees) at 9 MPH (8 KT) (direction variable):0
Visibility: greater than 7 mile(s):0
Temperature: 64 F (18 C)
Dew Point: 28 F (-2 C)
Relative Humidity: 25%
Pressure (altimeter): 30.21 in. Hg (1023 hPa)
ob: ZSPD 180300Z 11004MPS 060V180 CAVOK 18/M02 Q1023 NOSIG
cycle: 3

Station Type Date Time Source
ZSPD TAF 2021/04/17 18:03 UTC NOAA

TAF ZSPD 171509Z 1718/1818 13004MPS 6000 SCT030 TX20/1806Z TN10/1720Z

Example: see airport list